Time;durP1;ratioP1;P1;durP2;ratioP2;P2;SDS_P1;SDS_P2;PMS_P1;PMS_P2;Temp;Humidity;BMP_temperature;BMP_pressure;BME280_temperature;BME280_humidity;BME280_pressure;Samples;Min_cycle;Max_cycle;Signal;HPM_P1;HPM_P2
2021/09/28 00:02:10;;;;;;;;;;;;;;;18.71;72.05;101677.66;5094526;28;19924;-62
2021/09/28 00:04:37;;;;;;;;;;;;;;;18.69;72.16;101678.72;5094387;28;19925;-62
2021/09/28 00:07:13;;;;;;;;;;;;;;;18.68;72.10;101680.56;5094527;28;19924;-62
2021/09/28 00:09:39;;;;;;;;;;;;;;;18.68;72.01;101677.06;5094287;28;20414;-62
2021/09/28 00:12:06;;;;;;;;;;;;;;;18.65;72.12;101674.63;5094612;28;19928;-63
2021/09/28 00:14:32;;;;;;;;;;;;;;;18.65;71.92;101674.63;5094173;28;19924;-62
2021/09/28 00:16:59;;;;;;;;;;;;;;;18.62;72.13;101675.69;5094312;28;19930;-63
2021/09/28 00:19:25;;;;;;;;;;;;;;;18.60;72.12;101674.97;5093817;28;19989;-62
2021/09/28 00:21:52;;;;;;;;;;;;;;;18.59;72.15;101676.78;5084848;28;19932;-62
2021/09/28 00:24:18;;;;;;;;;;;;;;;18.62;71.81;101674.88;5089351;28;19966;-62
2021/09/28 00:26:45;;;;;;;;;;;;;;;18.61;72.00;101666.03;5094224;28;19931;-62
2021/09/28 00:29:11;;;;;;;;;;;;;;;18.61;71.98;101674.00;5094053;28;19924;-62
2021/09/28 00:31:38;;;;;;;;;;;;;;;18.62;72.04;101669.56;5093886;28;19930;-62
2021/09/28 00:34:04;;;;;;;;;;;;;;;18.59;71.97;101671.47;5093783;28;20349;-62
2021/09/28 00:36:31;;;;;;;;;;;;;;;18.57;71.75;101665.41;5093014;28;19942;-62
2021/09/28 00:38:57;;;;;;;;;;;;;;;18.54;72.02;101664.81;5093970;28;19932;-62
2021/09/28 00:41:24;;;;;;;;;;;;;;;18.53;72.02;101666.63;5093851;28;19924;-62
2021/09/28 00:43:53;;;;;;;;;;;;;;;18.53;71.92;101666.63;5093707;28;19931;-63
2021/09/28 00:46:23;;;;;;;;;;;;;;;18.52;71.63;101667.56;5093880;28;19924;-62
2021/09/28 00:48:50;;;;;;;;;;;;;;;18.51;72.04;101667.69;5093760;28;19975;-62
2021/09/28 00:51:17;;;;;;;;;;;;;;;18.50;72.10;101660.69;5093834;28;19951;-62
2021/09/28 00:53:45;;;;;;;;;;;;;;;18.50;71.98;101668.66;5093399;28;19936;-62
2021/09/28 00:56:14;;;;;;;;;;;;;;;18.46;71.99;101662.72;5093594;28;20346;-62
2021/09/28 00:58:41;;;;;;;;;;;;;;;18.44;72.09;101667.31;5093377;28;20273;-62
2021/09/28 01:01:11;;;;;;;;;;;;;;;18.40;71.98;101663.19;5093614;28;19928;-62
2021/09/28 01:03:38;;;;;;;;;;;;;;;18.33;72.05;101656.66;5092397;28;20318;-62
2021/09/28 01:06:05;;;;;;;;;;;;;;;18.33;72.02;101659.31;5093486;28;20410;-62
2021/09/28 01:08:31;;;;;;;;;;;;;;;18.31;72.08;101650.59;5093179;28;20418;-62
2021/09/28 01:10:58;;;;;;;;;;;;;;;18.31;72.02;101648.78;5092689;28;19989;-62
2021/09/28 01:13:25;;;;;;;;;;;;;;;18.31;71.68;101648.78;5093357;28;19973;-62
2021/09/28 01:15:58;;;;;;;;;;;;;;;18.32;71.91;101642.53;5091851;28;19924;-62
2021/09/28 01:18:28;;;;;;;;;;;;;;;18.33;71.95;101648.66;5093219;28;19934;-62
2021/09/28 01:20:55;;;;;;;;;;;;;;;18.33;71.54;101654.00;5091849;28;19924;-62
2021/09/28 01:23:21;;;;;;;;;;;;;;;18.31;72.01;101646.13;5080242;28;19954;-62
2021/09/28 01:25:48;;;;;;;;;;;;;;;18.33;71.68;101651.34;5093047;28;19928;-62
2021/09/28 01:28:14;;;;;;;;;;;;;;;18.32;71.55;101652.28;5092311;28;19924;-62
2021/09/28 01:30:41;;;;;;;;;;;;;;;18.31;71.49;101646.13;5092822;28;19924;-62
2021/09/28 01:33:08;;;;;;;;;;;;;;;18.29;71.67;101645.41;5093175;28;19924;-62
2021/09/28 01:35:37;;;;;;;;;;;;;;;18.29;71.95;101648.06;5092932;28;19931;-62
2021/09/28 01:38:04;;;;;;;;;;;;;;;18.24;71.74;101645.72;5092899;28;19924;-62
2021/09/28 01:40:31;;;;;;;;;;;;;;;18.25;71.85;101647.44;5091688;28;19924;-62
2021/09/28 01:43:04;;;;;;;;;;;;;;;18.25;71.65;101654.56;5092329;28;20033;-62
2021/09/28 01:45:30;;;;;;;;;;;;;;;18.23;71.68;101644.06;5092479;28;19924;-62
2021/09/28 01:47:57;;;;;;;;;;;;;;;18.24;71.79;101652.88;5092985;28;20341;-62
2021/09/28 01:50:23;;;;;;;;;;;;;;;18.22;71.94;101658.31;5078718;28;20291;-62
2021/09/28 01:52:50;;;;;;;;;;;;;;;18.20;71.58;101654.91;5093011;28;19928;-62
2021/09/28 01:55:16;;;;;;;;;;;;;;;18.19;71.79;101652.38;5093257;28;19928;-62
2021/09/28 01:57:43;;;;;;;;;;;;;;;18.17;71.96;101651.63;5092758;28;19928;-62
2021/09/28 02:00:10;;;;;;;;;;;;;;;18.13;71.70;101658.97;5092557;28;20457;-62
2021/09/28 02:02:36;;;;;;;;;;;;;;;18.11;71.75;101658.25;5092615;28;20335;-62
2021/09/28 02:05:03;;;;;;;;;;;;;;;18.06;71.74;101653.28;5092501;28;19924;-62
2021/09/28 02:07:29;;;;;;;;;;;;;;;18.05;71.78;101651.56;5092732;28;20291;-62
2021/09/28 02:09:56;;;;;;;;;;;;;;;17.98;71.83;101652.13;5092236;28;19930;-62
2021/09/28 02:12:22;;;;;;;;;;;;;;;17.99;71.66;101640.56;5092561;28;19971;-62
2021/09/28 02:14:49;;;;;;;;;;;;;;;17.98;71.83;101639.72;5092324;28;19928;-62
2021/09/28 02:17:15;;;;;;;;;;;;;;;17.99;71.86;101645.88;5092413;28;19924;-62
2021/09/28 02:19:42;;;;;;;;;;;;;;;17.95;71.66;101642.59;5092565;28;20296;-62
2021/09/28 02:22:09;;;;;;;;;;;;;;;17.94;71.38;101641.75;5081032;28;19928;-62
2021/09/28 02:24:35;;;;;;;;;;;;;;;17.93;71.52;101641.84;5089816;28;19924;-62
2021/09/28 02:27:02;;;;;;;;;;;;;;;17.90;71.75;101640.25;5092816;28;19973;-62
2021/09/28 02:29:28;;;;;;;;;;;;;;;17.90;71.74;101632.28;5091495;28;19931;-63
2021/09/28 02:31:55;;;;;;;;;;;;;;;17.91;71.72;101639.28;5092490;28;20023;-62
2021/09/28 02:34:21;;;;;;;;;;;;;;;17.90;71.80;101636.72;5092395;28;20261;-62
2021/09/28 02:36:47;;;;;;;;;;;;;;;17.89;71.54;101641.22;5078287;28;19947;-62
2021/09/28 02:39:14;;;;;;;;;;;;;;;17.87;71.61;101637.81;5092371;28;19924;-62
2021/09/28 02:41:40;;;;;;;;;;;;;;;17.85;71.54;101642.41;5092222;28;19930;-62
2021/09/28 02:44:07;;;;;;;;;;;;;;;17.84;71.45;101637.19;5091905;28;19928;-61
2021/09/28 02:46:33;;;;;;;;;;;;;;;17.85;71.56;101638.88;5092103;28;20695;-62
2021/09/28 02:49:00;;;;;;;;;;;;;;;17.86;71.73;101636.09;5092218;28;20419;-62
2021/09/28 02:51:27;;;;;;;;;;;;;;;17.83;71.70;101640.81;5092255;28;19935;-62
2021/09/28 02:53:54;;;;;;;;;;;;;;;17.76;71.83;101638.63;5092167;28;20414;-62
2021/09/28 02:56:21;;;;;;;;;;;;;;;17.77;71.92;101637.63;5092291;28;19925;-62
2021/09/28 02:58:47;;;;;;;;;;;;;;;17.78;71.62;101639.31;5094318;28;19924;-62
2021/09/28 03:01:14;;;;;;;;;;;;;;;17.79;71.94;101635.72;5095956;28;19969;-62
2021/09/28 03:03:41;;;;;;;;;;;;;;;17.79;71.67;101635.72;5091181;28;19931;-62
2021/09/28 03:06:08;;;;;;;;;;;;;;;17.78;72.05;101639.31;5092270;28;19924;-62
2021/09/28 03:08:34;;;;;;;;;;;;;;;17.78;71.83;101635.84;5092305;28;20269;-62
2021/09/28 03:11:01;;;;;;;;;;;;;;;17.76;71.79;101637.75;5091759;28;19935;-62
2021/09/28 03:13:27;;;;;;;;;;;;;;;17.75;71.85;101636.03;5092146;28;19927;-62
2021/09/28 03:15:54;;;;;;;;;;;;;;;17.75;71.62;101636.91;5091848;28;19928;-62
2021/09/28 03:18:20;;;;;;;;;;;;;;;17.76;71.88;101640.41;5092349;28;19924;-62
2021/09/28 03:20:47;;;;;;;;;;;;;;;17.74;71.79;101637.03;5091847;28;19928;-62
2021/09/28 03:23:13;;;;;;;;;;;;;;;17.74;71.83;101639.69;5078071;28;19928;-62
2021/09/28 03:25:41;;;;;;;;;;;;;;;17.70;72.02;101640.84;5092579;28;19928;-61
2021/09/28 03:28:08;;;;;;;;;;;;;;;17.68;72.11;101648.09;5091527;28;19928;-62
2021/09/28 03:30:36;;;;;;;;;;;;;;;17.66;71.83;101642.03;5091654;28;19924;-62
2021/09/28 03:33:02;;;;;;;;;;;;;;;17.66;71.78;101640.25;5091708;28;20449;-62
2021/09/28 03:35:29;;;;;;;;;;;;;;;17.66;71.94;101639.38;5091746;28;20390;-62
2021/09/28 03:37:56;;;;;;;;;;;;;;;17.67;71.67;101643.72;5091671;28;19934;-62
2021/09/28 03:40:22;;;;;;;;;;;;;;;17.66;71.69;101642.03;5091898;28;20299;-62
2021/09/28 03:42:51;;;;;;;;;;;;;;;17.66;71.96;101640.25;5091785;28;19932;-62
2021/09/28 03:45:17;;;;;;;;;;;;;;;17.61;71.97;101643.22;5091364;28;20281;-62
2021/09/28 03:47:44;;;;;;;;;;;;;;;17.62;72.04;101636.09;5091572;28;19928;-62
2021/09/28 03:50:10;;;;;;;;;;;;;;;17.62;71.86;101639.63;5091396;28;19928;-61
2021/09/28 03:52:37;;;;;;;;;;;;;;;17.60;71.87;101641.53;5091465;28;20360;-62
2021/09/28 03:55:04;;;;;;;;;;;;;;;17.61;72.21;101642.34;5091143;28;19977;-62
2021/09/28 03:57:30;;;;;;;;;;;;;;;17.61;72.15;101642.34;5091571;28;19938;-62
2021/09/28 03:59:57;;;;;;;;;;;;;;;17.61;72.12;101639.69;5090672;28;19924;-62
2021/09/28 04:02:23;;;;;;;;;;;;;;;17.60;71.68;101644.16;5091394;28;19924;-62
2021/09/28 04:04:50;;;;;;;;;;;;;;;17.60;72.09;101648.66;5090860;28;19924;-62
2021/09/28 04:07:17;;;;;;;;;;;;;;;17.55;72.06;101646.31;5091350;28;19950;-62
2021/09/28 04:09:43;;;;;;;;;;;;;;;17.54;72.18;101652.56;5089872;28;19977;-62
2021/09/28 04:12:10;;;;;;;;;;;;;;;17.53;72.15;101647.38;5090923;28;19969;-62
2021/09/28 04:14:36;;;;;;;;;;;;;;;17.50;72.17;101650.28;5090884;28;20376;-62
2021/09/28 04:17:03;;;;;;;;;;;;;;;17.45;72.02;101659.38;5091141;28;19935;-62
2021/09/28 04:19:30;;;;;;;;;;;;;;;17.43;71.92;101660.44;5090793;28;19931;-62
2021/09/28 04:21:56;;;;;;;;;;;;;;;17.41;72.32;101659.72;5090535;28;19954;-62
2021/09/28 04:24:23;;;;;;;;;;;;;;;17.37;72.16;101656.44;5091102;28;20371;-62
2021/09/28 04:26:49;;;;;;;;;;;;;;;17.37;71.84;101653.78;5090141;28;19930;-62
2021/09/28 04:29:16;;;;;;;;;;;;;;;17.36;72.13;101652.09;5090496;28;19928;-62
2021/09/28 04:31:43;;;;;;;;;;;;;;;17.34;72.16;101659.28;5090532;28;19928;-62
2021/09/28 04:34:09;;;;;;;;;;;;;;;17.34;71.68;101669.91;5090574;28;19932;-62
2021/09/28 04:36:35;;;;;;;;;;;;;;;17.32;72.16;101663.00;5090340;28;19924;-61
2021/09/28 04:39:02;;;;;;;;;;;;;;;17.33;71.85;101664.72;5090633;28;19924;-62
2021/09/28 04:41:28;;;;;;;;;;;;;;;17.33;71.59;101662.06;5090271;28;19993;-61
2021/09/28 04:43:55;;;;;;;;;;;;;;;17.32;71.78;101668.31;5090980;28;20334;-62
2021/09/28 04:46:21;;;;;;;;;;;;;;;17.31;71.91;101659.53;5090263;28;19924;-62
2021/09/28 04:48:48;;;;;;;;;;;;;;;17.30;72.17;101665.78;5090379;28;19935;-61
2021/09/28 04:51:15;;;;;;;;;;;;;;;17.26;71.65;101662.50;5089806;28;19931;-62
2021/09/28 04:53:41;;;;;;;;;;;;;;;17.24;71.95;101661.78;5089572;28;19994;-61
2021/09/28 04:56:08;;;;;;;;;;;;;;;17.25;72.06;101670.56;5089941;28;19934;-62
2021/09/28 04:58:35;;;;;;;;;;;;;;;17.25;72.06;101668.75;5089917;28;19928;-62
2021/09/28 05:01:01;;;;;;;;;;;;;;;17.26;71.55;101667.78;5089767;28;19950;-62
2021/09/28 05:03:28;;;;;;;;;;;;;;;17.26;71.44;101672.28;5076310;28;20428;-62
2021/09/28 05:05:55;;;;;;;;;;;;;;;17.24;71.88;101672.38;5089190;28;19924;-62
2021/09/28 05:08:21;;;;;;;;;;;;;;;17.23;71.46;101672.47;5089764;28;19924;-62
2021/09/28 05:10:52;;;;;;;;;;;;;;;17.24;71.45;101671.50;5089181;28;19928;-63
2021/09/28 05:13:19;;;;;;;;;;;;;;;17.24;71.30;101674.16;5090216;28;19928;-63
2021/09/28 05:15:50;;;;;;;;;;;;;;;17.18;71.56;101675.47;5090382;28;19924;-62
2021/09/28 05:18:20;;;;;;;;;;;;;;;17.17;71.63;101678.22;5081865;28;19935;-62
2021/09/28 05:20:47;;;;;;;;;;;;;;;17.15;71.39;101675.66;5089601;28;20360;-64
2021/09/28 05:23:13;;;;;;;;;;;;;;;17.16;71.27;101673.88;5079135;28;19928;-62
2021/09/28 05:25:40;;;;;;;;;;;;;;;17.17;71.50;101678.22;5089595;28;20129;-61
2021/09/28 05:28:06;;;;;;;;;;;;;;;17.20;71.35;101675.34;5089314;28;20032;-62
2021/09/28 05:30:33;;;;;;;;;;;;;;;17.22;71.62;101678.75;5088879;28;19928;-61
2021/09/28 05:32:59;;;;;;;;;;;;;;;17.24;71.16;101685.66;5089173;28;19928;-61
2021/09/28 05:35:26;;;;;;;;;;;;;;;17.26;71.33;101685.53;5085835;28;19928;-61
2021/09/28 05:37:53;;;;;;;;;;;;;;;17.26;71.51;101690.84;5084130;28;19982;-62
2021/09/28 05:40:19;;;;;;;;;;;;;;;17.28;71.49;101684.47;5087527;28;19928;-60
2021/09/28 05:42:46;;;;;;;;;;;;;;;17.30;71.58;101684.34;5089189;28;20399;-61
2021/09/28 05:45:12;;;;;;;;;;;;;;;17.31;71.70;101688.72;5089016;28;20383;-61
2021/09/28 05:47:39;;;;;;;;;;;;;;;17.32;71.63;101695.72;5089319;28;19928;-61
2021/09/28 05:50:06;;;;;;;;;;;;;;;17.32;71.54;101695.72;5088719;28;20401;-61
2021/09/28 05:52:33;;;;;;;;;;;;;;;17.32;71.71;101693.06;5088500;28;19924;-62
2021/09/28 05:55:00;;;;;;;;;;;;;;;17.34;71.55;101691.13;5087704;28;19928;-61
2021/09/28 05:57:26;;;;;;;;;;;;;;;17.37;71.62;101703.34;5087710;28;19925;-62
2021/09/28 05:59:53;;;;;;;;;;;;;;;17.39;71.74;101691.66;5088728;28;19931;-61
2021/09/28 06:02:23;;;;;;;;;;;;;;;17.42;71.44;101695.91;5071566;28;19929;-62
2021/09/28 06:04:50;;;;;;;;;;;;;;;17.45;71.21;101703.66;5088626;28;20380;-62
2021/09/28 06:07:17;;;;;;;;;;;;;;;17.47;71.72;101699.06;5089310;28;20295;-61
2021/09/28 06:09:44;;;;;;;;;;;;;;;17.49;71.69;101709.59;5089050;28;19932;-63
2021/09/28 06:12:11;;;;;;;;;;;;;;;17.52;71.55;101704.06;5088127;28;19954;-61
2021/09/28 06:14:38;;;;;;;;;;;;;;;17.52;71.50;101710.25;5085707;28;20175;-61
2021/09/28 06:17:05;;;;;;;;;;;;;;;17.57;71.65;101710.75;5083755;28;19924;-61
2021/09/28 06:19:34;;;;;;;;;;;;;;;17.60;71.78;101710.53;5087174;28;19970;-61
2021/09/28 06:22:00;;;;;;;;;;;;;;;17.63;71.82;101706.81;5079849;28;19928;-61
2021/09/28 06:24:27;;;;;;;;;;;;;;;17.67;71.66;101708.28;5088046;28;19924;-61
2021/09/28 06:26:57;;;;;;;;;;;;;;;17.72;72.10;101713.25;5088417;28;19924;-61
2021/09/28 06:29:24;;;;;;;;;;;;;;;17.77;71.57;101713.78;5087981;28;19931;-61
2021/09/28 06:31:50;;;;;;;;;;;;;;;17.83;71.93;101704.53;5085576;28;19924;-61
2021/09/28 06:34:17;;;;;;;;;;;;;;;17.90;71.97;101716.41;5091420;28;19977;-61
2021/09/28 06:36:43;;;;;;;;;;;;;;;17.98;71.72;101719.41;5092551;28;19936;-61
2021/09/28 06:39:10;;;;;;;;;;;;;;;18.04;71.39;101715.44;5091522;28;19928;-61
2021/09/28 06:41:37;;;;;;;;;;;;;;;18.16;71.64;101721.69;5092323;28;20383;-62
2021/09/28 06:44:05;;;;;;;;;;;;;;;18.28;71.29;101718.09;5089006;28;20276;-62
2021/09/28 06:46:32;;;;;;;;;;;;;;;18.41;70.82;101720.69;5091450;28;19928;-61
2021/09/28 06:48:59;;;;;;;;;;;;;;;18.58;69.97;101717.63;5092366;28;19928;-61
2021/09/28 06:51:25;;;;;;;;;;;;;;;18.75;69.91;101715.50;5092530;28;20403;-61
2021/09/28 06:53:52;;;;;;;;;;;;;;;18.90;69.69;101719.66;5091737;28;19928;-61
2021/09/28 06:56:20;;;;;;;;;;;;;;;19.02;69.29;101717.91;5090891;28;19943;-61
2021/09/28 06:58:48;;;;;;;;;;;;;;;19.18;68.63;101712.22;5091534;28;19981;-61
2021/09/28 07:01:14;;;;;;;;;;;;;;;19.31;68.73;101711.25;5091555;28;19924;-60
2021/09/28 07:03:41;;;;;;;;;;;;;;;19.45;68.26;101716.34;5091145;28;20004;-61
2021/09/28 07:06:08;;;;;;;;;;;;;;;19.61;67.53;101723.13;5091212;28;19924;-61
2021/09/28 07:08:34;;;;;;;;;;;;;;;19.74;67.32;101718.50;5091685;28;19923;-60
2021/09/28 07:11:01;;;;;;;;;;;;;;;19.81;67.50;101717.06;5091933;28;19947;-60
2021/09/28 07:13:28;;;;;;;;;;;;;;;19.81;67.19;101716.22;5091184;28;19924;-61
2021/09/28 07:15:54;;;;;;;;;;;;;;;19.89;67.44;101721.78;5084080;28;19928;-61
2021/09/28 07:18:21;;;;;;;;;;;;;;;19.95;66.93;101725.75;5092144;28;19924;-60
2021/09/28 07:20:47;;;;;;;;;;;;;;;20.02;66.89;101729.63;5090930;28;19973;-65
2021/09/28 07:23:14;;;;;;;;;;;;;;;20.16;66.47;101724.03;5077399;28;19928;-60
2021/09/28 07:25:40;;;;;;;;;;;;;;;20.30;66.28;101720.25;5090882;28;20279;-61
2021/09/28 07:28:08;;;;;;;;;;;;;;;20.39;65.76;101718.59;5090979;28;19924;-61
2021/09/28 07:30:34;;;;;;;;;;;;;;;20.56;65.32;101728.72;5090674;28;19939;-61
2021/09/28 07:33:01;;;;;;;;;;;;;;;20.62;65.32;101729.16;5090629;28;19958;-61
2021/09/28 07:35:28;;;;;;;;;;;;;;;20.73;65.20;101734.47;5088379;28;19924;-63
2021/09/28 07:37:54;;;;;;;;;;;;;;;20.85;64.93;101733.44;5089916;28;19924;-61
2021/09/28 07:40:21;;;;;;;;;;;;;;;21.04;64.63;101740.72;5085502;28;19924;-60
2021/09/28 07:42:47;;;;;;;;;;;;;;;21.05;64.45;101736.22;5085695;28;19928;-61
2021/09/28 07:45:14;;;;;;;;;;;;;;;21.20;63.73;101734.94;5090098;28;19924;-60
2021/09/28 07:47:41;;;;;;;;;;;;;;;21.31;63.68;101734.00;5090554;28;20277;-60
2021/09/28 07:50:08;;;;;;;;;;;;;;;21.43;63.22;101728.56;5091271;28;20409;-66
2021/09/28 07:52:36;;;;;;;;;;;;;;;21.54;63.06;101729.31;5091193;28;20021;-66
2021/09/28 07:55:03;;;;;;;;;;;;;;;21.71;62.67;101735.00;5089358;28;19939;-63
2021/09/28 07:57:30;;;;;;;;;;;;;;;21.79;62.40;101742.38;5087865;28;19985;-67
2021/09/28 07:59:58;;;;;;;;;;;;;;;21.87;62.23;101745.19;5090602;28;19928;-62
2021/09/28 08:02:26;;;;;;;;;;;;;;;22.07;62.07;101742.56;5089345;28;19931;-61
2021/09/28 08:04:54;;;;;;;;;;;;;;;22.17;61.79;101751.47;5090294;28;19962;-60
2021/09/28 08:07:21;;;;;;;;;;;;;;;22.19;61.88;101749.47;5090925;28;20014;-61
2021/09/28 08:09:49;;;;;;;;;;;;;;;22.24;61.59;101755.25;5090590;28;19934;-64
2021/09/28 08:12:16;;;;;;;;;;;;;;;22.38;61.56;101750.53;5091060;28;19928;-61
2021/09/28 08:14:43;;;;;;;;;;;;;;;22.46;61.53;101748.84;5090295;28;20453;-61
2021/09/28 08:17:10;;;;;;;;;;;;;;;22.58;61.30;101752.22;5090845;28;19928;-64
2021/09/28 08:19:39;;;;;;;;;;;;;;;22.61;61.31;101748.41;5090521;28;19928;-63
2021/09/28 08:22:08;;;;;;;;;;;;;;;22.60;61.24;101746.72;5079664;28;19928;-60
2021/09/28 08:24:40;;;;;;;;;;;;;;;22.86;60.61;101736.28;5087992;28;20288;-60
2021/09/28 08:29:52;;;;;;;;;;;;;;;23.12;59.91;101736.50;5090510;28;19969;-61
2021/09/28 08:32:19;;;;;;;;;;;;;;;23.26;59.64;101737.03;5090149;28;19926;-61
2021/09/28 08:34:46;;;;;;;;;;;;;;;23.40;59.28;101741.94;5089267;28;20009;-61
2021/09/28 08:37:13;;;;;;;;;;;;;;;23.62;58.36;101738.00;5090633;28;20453;-61
2021/09/28 08:39:40;;;;;;;;;;;;;;;23.77;58.15;101733.00;5090059;28;19928;-61
2021/09/28 08:42:07;;;;;;;;;;;;;;;23.88;57.90;101734.63;5089882;28;19986;-61
2021/09/28 08:44:33;;;;;;;;;;;;;;;24.08;57.41;101737.22;5089180;28;19931;-61
2021/09/28 08:47:00;;;;;;;;;;;;;;;24.18;57.21;101723.75;5079394;28;19932;-61
2021/09/28 08:49:26;;;;;;;;;;;;;;;24.25;57.30;101727.50;5081236;28;19932;-61
2021/09/28 08:51:53;;;;;;;;;;;;;;;24.37;57.00;101720.91;5085829;28;19931;-61
2021/09/28 08:54:19;;;;;;;;;;;;;;;24.51;56.50;101714.16;5089768;28;19932;-61
2021/09/28 08:56:47;;;;;;;;;;;;;;;24.70;56.22;101723.88;5088729;28;19928;-62
2021/09/28 08:59:14;;;;;;;;;;;;;;;24.82;55.83;101720.94;5089687;28;20400;-61
2021/09/28 09:01:57;;;;;;;;;;;;;;;24.88;55.87;101714.97;5089389;28;19931;-61
2021/09/28 09:04:25;;;;;;;;;;;;;;;25.08;55.26;101715.59;5086883;28;19990;-60
2021/09/28 09:06:54;;;;;;;;;;;;;;;25.16;54.96;101707.56;5089636;28;19978;-61
2021/09/28 09:09:47;;;;;;;;;;;;;;;25.35;54.47;101706.47;5089576;28;20306;-61
2021/09/28 09:12:13;;;;;;;;;;;;;;;25.55;54.07;101709.78;5082978;28;19930;-61
2021/09/28 09:14:40;;;;;;;;;;;;;;;25.55;54.06;101706.28;5084822;28;19959;-61
2021/09/28 09:17:07;;;;;;;;;;;;;;;25.80;53.62;101701.81;5089461;28;20371;-61
2021/09/28 09:19:33;;;;;;;;;;;;;;;25.94;53.15;101697.66;5089484;28;19957;-61
2021/09/28 09:22:01;;;;;;;;;;;;;;;26.11;52.78;101695.84;5079198;28;19933;-62
2021/09/28 09:24:46;;;;;;;;;;;;;;;26.24;52.69;101700.72;5087099;28;20387;-61
2021/09/28 09:27:15;;;;;;;;;;;;;;;26.38;52.10;101691.97;5087843;28;20368;-61
2021/09/28 09:29:44;;;;;;;;;;;;;;;26.49;51.80;101687.28;5086396;28;20120;-61
2021/09/28 09:32:11;;;;;;;;;;;;;;;26.59;51.48;101687.06;5083437;28;19932;-61
2021/09/28 09:34:38;;;;;;;;;;;;;;;26.78;51.33;101685.91;5088511;28;20027;-61
2021/09/28 09:37:05;;;;;;;;;;;;;;;26.91;50.77;101690.78;5084263;28;19935;-61
2021/09/28 09:39:44;;;;;;;;;;;;;;;27.09;50.45;101682.47;5089018;28;20292;-62
2021/09/28 09:42:11;;;;;;;;;;;;;;;27.27;50.12;101690.31;5074014;28;19924;-61
2021/09/28 09:44:41;;;;;;;;;;;;;;;27.44;49.42;101686.56;5082545;28;19932;-61
2021/09/28 09:47:23;;;;;;;;;;;;;;;27.60;49.26;101687.50;5075975;28;20322;-61
2021/09/28 09:49:50;;;;;;;;;;;;;;;27.86;48.64;101682.63;5086786;28;19932;-63
2021/09/28 09:52:17;;;;;;;;;;;;;;;28.00;47.86;101689.09;5088586;28;19924;-62
2021/09/28 09:54:44;;;;;;;;;;;;;;;28.14;47.33;101689.38;5088263;28;20400;-61
2021/09/28 09:57:11;;;;;;;;;;;;;;;28.35;46.76;101686.00;5088652;28;19932;-62
2021/09/28 09:59:39;;;;;;;;;;;;;;;28.31;46.49;101685.50;5082280;28;20295;-61
2021/09/28 10:02:06;;;;;;;;;;;;;;;28.23;46.78;101688.28;5086596;28;20384;-61
2021/09/28 10:04:33;;;;;;;;;;;;;;;28.14;46.80;101695.59;5088250;28;19930;-61
2021/09/28 10:07:04;;;;;;;;;;;;;;;28.11;46.88;101689.72;5089106;28;19928;-61
2021/09/28 10:09:37;;;;;;;;;;;;;;;28.22;46.43;101680.38;5092457;28;19934;-61
2021/09/28 10:12:10;;;;;;;;;;;;;;;28.38;46.07;101682.09;5089830;28;19931;-61
2021/09/28 10:14:41;;;;;;;;;;;;;;;28.44;46.15;101681.34;5091863;28;20010;-62
2021/09/28 10:17:19;;;;;;;;;;;;;;;28.72;45.38;101681.66;5091451;28;20029;-62
2021/09/28 10:19:48;;;;;;;;;;;;;;;28.83;44.99;101678.47;5087584;28;19931;-61
2021/09/28 10:22:33;;;;;;;;;;;;;;;28.90;44.66;101678.56;5082088;28;19963;-63
2021/09/28 10:25:18;;;;;;;;;;;;;;;29.06;44.13;101668.59;5079467;28;19932;-61
2021/09/28 10:27:45;;;;;;;;;;;;;;;29.23;43.71;101663.81;5091417;28;20388;-62
2021/09/28 10:30:38;;;;;;;;;;;;;;;29.47;43.32;101665.38;5092640;28;19924;-61
2021/09/28 10:33:06;;;;;;;;;;;;;;;29.47;43.43;101671.66;5090230;28;19924;-61
2021/09/28 10:35:35;;;;;;;;;;;;;;;29.68;42.64;101672.69;5092309;28;19928;-61
2021/09/28 10:38:06;;;;;;;;;;;;;;;29.75;42.89;101664.66;5092280;28;19928;-61
2021/09/28 10:40:33;;;;;;;;;;;;;;;29.87;42.15;101662.28;5092344;28;19985;-61
2021/09/28 10:43:00;;;;;;;;;;;;;;;30.06;42.24;101667.06;5091768;28;19933;-61
2021/09/28 10:45:30;;;;;;;;;;;;;;;30.12;41.97;101663.59;5091325;28;19986;-61
2021/09/28 10:48:00;;;;;;;;;;;;;;;30.26;41.30;101661.00;5091687;28;20439;-61
2021/09/28 10:50:33;;;;;;;;;;;;;;;30.34;40.99;101662.75;5091217;28;20335;-63
2021/09/28 10:53:06;;;;;;;;;;;;;;;30.35;40.83;101664.38;5092434;28;19924;-61
2021/09/28 10:55:39;;;;;;;;;;;;;;;30.40;41.08;101661.97;5091498;28;19924;-61
2021/09/28 10:58:12;;;;;;;;;;;;;;;30.49;40.93;101662.66;5091708;28;19924;-61
2021/09/28 11:00:38;;;;;;;;;;;;;;;30.58;40.18;101662.31;5091430;28;19989;-61
2021/09/28 11:03:05;;;;;;;;;;;;;;;30.58;40.56;101658.78;5091534;28;19970;-62
2021/09/28 11:05:34;;;;;;;;;;;;;;;30.69;39.92;101652.81;5091680;28;19928;-61
2021/09/28 11:08:02;;;;;;;;;;;;;;;30.86;39.71;101655.19;5092132;28;19928;-61
2021/09/28 11:10:30;;;;;;;;;;;;;;;30.64;40.64;101654.44;5091765;28;20018;-61
2021/09/28 11:12:56;;;;;;;;;;;;;;;30.71;40.50;101650.72;5088783;28;19924;-60
2021/09/28 11:15:24;;;;;;;;;;;;;;;30.54;40.46;101641.25;5085458;28;19923;-60
2021/09/28 11:17:51;;;;;;;;;;;;;;;30.54;40.44;101646.66;5078166;28;19924;-61
2021/09/28 11:20:19;;;;;;;;;;;;;;;30.50;40.74;101643.50;5090727;28;19927;-60
2021/09/28 11:22:55;;;;;;;;;;;;;;;30.65;40.64;101646.09;5091635;28;19924;-60
2021/09/28 11:25:21;;;;;;;;;;;;;;;30.76;40.18;101637.41;5091143;28;19931;-60
2021/09/28 11:28:04;;;;;;;;;;;;;;;30.70;40.29;101638.22;5091268;28;19927;-61
2021/09/28 11:30:35;;;;;;;;;;;;;;;30.64;40.98;101635.47;5087249;28;19927;-61
2021/09/28 11:33:02;;;;;;;;;;;;;;;30.81;40.46;101630.56;5089699;28;19972;-62
2021/09/28 11:35:29;;;;;;;;;;;;;;;30.73;40.14;101624.28;5087647;28;19924;-60
2021/09/28 11:37:57;;;;;;;;;;;;;;;30.85;40.40;101619.09;5090378;28;19924;-60
2021/09/28 11:40:30;;;;;;;;;;;;;;;30.81;40.07;101625.16;5087476;28;20280;-60
2021/09/28 11:43:14;;;;;;;;;;;;;;;30.73;40.49;101626.97;5090133;28;19960;-62
2021/09/28 11:45:42;;;;;;;;;;;;;;;30.81;39.86;101619.72;5090151;28;19961;-61
2021/09/28 11:48:10;;;;;;;;;;;;;;;30.75;39.82;101611.38;5091015;28;19952;-60
2021/09/28 11:50:37;;;;;;;;;;;;;;;30.53;40.25;101609.78;5090770;28;19928;-61
2021/09/28 11:53:07;;;;;;;;;;;;;;;30.55;39.72;101613.09;5090910;28;19924;-62
2021/09/28 11:55:34;;;;;;;;;;;;;;;30.68;39.46;101610.50;5090979;28;19925;-60
2021/09/28 11:58:03;;;;;;;;;;;;;;;30.80;39.39;101607.22;5090786;28;19963;-61
2021/09/28 12:00:29;;;;;;;;;;;;;;;30.73;39.05;101605.31;5088679;28;20276;-60
2021/09/28 12:03:19;;;;;;;;;;;;;;;30.73;39.33;101601.78;5091068;28;19924;-61
2021/09/28 12:08:25;;;;;;;;;;;;;;;31.04;38.13;101598.56;5090868;28;19932;-60
2021/09/28 12:10:52;;;;;;;;;;;;;;;31.18;38.05;101601.34;5090841;28;20539;-60
2021/09/28 12:13:20;;;;;;;;;;;;;;;31.25;37.56;101594.91;5089344;28;20277;-60
2021/09/28 12:16:04;;;;;;;;;;;;;;;31.19;38.06;101589.47;5089457;28;19924;-60
2021/09/28 12:18:31;;;;;;;;;;;;;;;31.38;38.00;101583.25;5090271;28;20043;-60
2021/09/28 12:21:15;;;;;;;;;;;;;;;31.41;37.85;101587.44;5089201;28;19931;-60
2021/09/28 12:23:41;;;;;;;;;;;;;;;31.46;37.92;101575.97;5080568;28;19973;-61
2021/09/28 12:26:28;;;;;;;;;;;;;;;31.41;37.49;101582.88;5089812;28;19935;-62
2021/09/28 12:28:55;;;;;;;;;;;;;;;31.44;37.95;101576.19;5090437;28;19925;-62
2021/09/28 12:31:33;;;;;;;;;;;;;;;31.40;37.63;101577.63;5088704;28;19931;-62
2021/09/28 12:34:00;;;;;;;;;;;;;;;31.48;37.71;101577.44;5090261;28;20032;-63
2021/09/28 12:36:27;;;;;;;;;;;;;;;31.52;37.38;101572.44;5089908;28;19925;-63
2021/09/28 12:39:09;;;;;;;;;;;;;;;31.47;37.64;101564.09;5089291;28;19924;-62
2021/09/28 12:41:53;;;;;;;;;;;;;;;31.39;37.41;101559.69;5089999;28;19950;-61
2021/09/28 12:44:21;;;;;;;;;;;;;;;31.17;38.17;101548.16;5089561;28;20296;-61
2021/09/28 12:46:48;;;;;;;;;;;;;;;31.06;38.45;101558.56;5089972;28;20439;-63